sensor_id;sensor_type;location;lat;lon;timestamp;P1;durP1;ratioP1;P2;durP2;ratioP2
52866;SDS011;38739;53.324;6.862;2022-12-07T00:01:22;10.82;;;1.20;;
52866;SDS011;38739;53.324;6.862;2022-12-07T00:03:50;10.30;;;1.25;;
52866;SDS011;38739;53.324;6.862;2022-12-07T00:06:17;14.63;;;1.25;;
52866;SDS011;38739;53.324;6.862;2022-12-07T00:08:44;16.65;;;1.40;;
52866;SDS011;38739;53.324;6.862;2022-12-07T00:11:11;14.55;;;1.50;;
52866;SDS011;38739;53.324;6.862;2022-12-07T00:13:39;7.60;;;1.10;;
52866;SDS011;38739;53.324;6.862;2022-12-07T00:16:07;7.68;;;1.10;;
52866;SDS011;38739;53.324;6.862;2022-12-07T00:18:34;12.63;;;1.00;;
52866;SDS011;38739;53.324;6.862;2022-12-07T00:21:06;11.20;;;1.23;;
52866;SDS011;38739;53.324;6.862;2022-12-07T00:23:34;9.27;;;1.20;;
52866;SDS011;38739;53.324;6.862;2022-12-07T00:26:07;10.00;;;0.80;;
52866;SDS011;38739;53.324;6.862;2022-12-07T00:28:35;10.00;;;0.90;;
52866;SDS011;38739;53.324;6.862;2022-12-07T00:31:08;5.35;;;0.82;;
52866;SDS011;38739;53.324;6.862;2022-12-07T00:33:36;6.00;;;0.80;;
52866;SDS011;38739;53.324;6.862;2022-12-07T00:36:03;9.73;;;1.10;;
52866;SDS011;38739;53.324;6.862;2022-12-07T00:38:33;11.13;;;1.20;;
52866;SDS011;38739;53.324;6.862;2022-12-07T00:41:01;13.98;;;1.60;;
52866;SDS011;38739;53.324;6.862;2022-12-07T00:43:28;13.10;;;1.17;;
52866;SDS011;38739;53.324;6.862;2022-12-07T00:45:54;7.72;;;1.25;;
52866;SDS011;38739;53.324;6.862;2022-12-07T00:48:21;7.18;;;0.90;;
52866;SDS011;38739;53.324;6.862;2022-12-07T00:50:47;10.95;;;1.35;;
52866;SDS011;38739;53.324;6.862;2022-12-07T00:53:16;7.88;;;1.10;;
52866;SDS011;38739;53.324;6.862;2022-12-07T00:55:42;8.35;;;1.20;;
52866;SDS011;38739;53.324;6.862;2022-12-07T00:58:09;9.63;;;1.30;;
52866;SDS011;38739;53.324;6.862;2022-12-07T01:00:35;9.88;;;1.20;;
52866;SDS011;38739;53.324;6.862;2022-12-07T01:03:03;13.50;;;1.50;;
52866;SDS011;38739;53.324;6.862;2022-12-07T01:05:30;12.35;;;1.30;;
52866;SDS011;38739;53.324;6.862;2022-12-07T01:07:56;13.02;;;1.23;;
52866;SDS011;38739;53.324;6.862;2022-12-07T01:10:21;14.90;;;1.27;;
52866;SDS011;38739;53.324;6.862;2022-12-07T01:12:47;14.20;;;1.77;;
52866;SDS011;38739;53.324;6.862;2022-12-07T01:15:13;13.23;;;1.13;;
52866;SDS011;38739;53.324;6.862;2022-12-07T01:17:39;13.52;;;1.45;;
52866;SDS011;38739;53.324;6.862;2022-12-07T01:20:04;15.10;;;1.40;;
52866;SDS011;38739;53.324;6.862;2022-12-07T01:22:31;15.38;;;1.52;;
52866;SDS011;38739;53.324;6.862;2022-12-07T01:24:56;15.77;;;2.15;;
52866;SDS011;38739;53.324;6.862;2022-12-07T01:27:22;10.82;;;1.30;;
52866;SDS011;38739;53.324;6.862;2022-12-07T01:29:47;8.75;;;1.00;;
52866;SDS011;38739;53.324;6.862;2022-12-07T01:32:13;12.15;;;1.20;;
52866;SDS011;38739;53.324;6.862;2022-12-07T01:34:39;10.43;;;0.93;;
52866;SDS011;38739;53.324;6.862;2022-12-07T01:37:06;9.20;;;0.70;;
52866;SDS011;38739;53.324;6.862;2022-12-07T01:39:31;10.45;;;1.05;;
52866;SDS011;38739;53.324;6.862;2022-12-07T01:41:57;7.03;;;0.85;;
52866;SDS011;38739;53.324;6.862;2022-12-07T01:44:24;4.60;;;0.73;;
52866;SDS011;38739;53.324;6.862;2022-12-07T01:46:52;6.80;;;0.70;;
52866;SDS011;38739;53.324;6.862;2022-12-07T01:54:33;8.93;;;1.10;;
52866;SDS011;38739;53.324;6.862;2022-12-07T01:57:00;14.27;;;2.55;;
52866;SDS011;38739;53.324;6.862;2022-12-07T01:59:27;15.15;;;1.35;;
52866;SDS011;38739;53.324;6.862;2022-12-07T02:01:54;8.60;;;1.10;;
52866;SDS011;38739;53.324;6.862;2022-12-07T02:04:21;12.00;;;1.10;;
52866;SDS011;38739;53.324;6.862;2022-12-07T02:06:48;13.02;;;1.58;;
52866;SDS011;38739;53.324;6.862;2022-12-07T02:09:14;9.68;;;1.30;;
52866;SDS011;38739;53.324;6.862;2022-12-07T02:11:40;9.57;;;1.20;;
52866;SDS011;38739;53.324;6.862;2022-12-07T02:14:06;10.65;;;1.17;;
52866;SDS011;38739;53.324;6.862;2022-12-07T02:19:21;11.25;;;0.95;;
52866;SDS011;38739;53.324;6.862;2022-12-07T02:27:47;6.07;;;0.93;;
52866;SDS011;38739;53.324;6.862;2022-12-07T02:30:20;14.60;;;1.27;;
52866;SDS011;38739;53.324;6.862;2022-12-07T02:32:56;10.13;;;1.10;;
52866;SDS011;38739;53.324;6.862;2022-12-07T02:35:30;9.63;;;1.30;;
52866;SDS011;38739;53.324;6.862;2022-12-07T02:38:20;11.52;;;0.85;;
52866;SDS011;38739;53.324;6.862;2022-12-07T02:43:40;15.82;;;1.00;;
52866;SDS011;38739;53.324;6.862;2022-12-07T02:49:07;13.30;;;1.20;;
52866;SDS011;38739;53.324;6.862;2022-12-07T02:51:33;9.55;;;1.40;;
52866;SDS011;38739;53.324;6.862;2022-12-07T02:54:07;10.48;;;1.05;;
52866;SDS011;38739;53.324;6.862;2022-12-07T03:11:39;5.82;;;0.70;;
52866;SDS011;38739;53.324;6.862;2022-12-07T03:14:17;10.18;;;0.77;;
52866;SDS011;38739;53.324;6.862;2022-12-07T03:19:17;5.07;;;0.60;;
52866;SDS011;38739;53.324;6.862;2022-12-07T03:24:27;7.78;;;0.70;;
52866;SDS011;38739;53.324;6.862;2022-12-07T03:27:18;5.05;;;0.80;;
52866;SDS011;38739;53.324;6.862;2022-12-07T03:30:03;8.20;;;0.60;;
52866;SDS011;38739;53.324;6.862;2022-12-07T03:32:37;7.30;;;1.02;;
52866;SDS011;38739;53.324;6.862;2022-12-07T03:35:18;10.50;;;0.60;;
52866;SDS011;38739;53.324;6.862;2022-12-07T03:40:49;8.93;;;0.90;;
52866;SDS011;38739;53.324;6.862;2022-12-07T03:43:27;10.25;;;1.10;;
52866;SDS011;38739;53.324;6.862;2022-12-07T03:46:05;12.00;;;1.20;;
52866;SDS011;38739;53.324;6.862;2022-12-07T03:48:59;10.70;;;1.00;;
52866;SDS011;38739;53.324;6.862;2022-12-07T03:51:37;10.35;;;0.88;;
52866;SDS011;38739;53.324;6.862;2022-12-07T03:54:11;8.27;;;0.90;;
52866;SDS011;38739;53.324;6.862;2022-12-07T03:56:59;7.38;;;1.05;;
52866;SDS011;38739;53.324;6.862;2022-12-07T03:59:26;6.10;;;0.50;;
52866;SDS011;38739;53.324;6.862;2022-12-07T04:01:55;4.60;;;0.65;;
52866;SDS011;38739;53.324;6.862;2022-12-07T04:04:23;3.40;;;0.50;;
52866;SDS011;38739;53.324;6.862;2022-12-07T04:09:21;5.18;;;0.60;;
52866;SDS011;38739;53.324;6.862;2022-12-07T04:11:47;4.28;;;0.40;;
52866;SDS011;38739;53.324;6.862;2022-12-07T04:14:12;1.60;;;0.30;;
52866;SDS011;38739;53.324;6.862;2022-12-07T04:16:48;2.88;;;0.40;;
52866;SDS011;38739;53.324;6.862;2022-12-07T04:19:16;7.57;;;0.50;;
52866;SDS011;38739;53.324;6.862;2022-12-07T04:21:43;3.75;;;0.82;;
52866;SDS011;38739;53.324;6.862;2022-12-07T04:24:09;4.57;;;0.45;;
52866;SDS011;38739;53.324;6.862;2022-12-07T04:26:35;3.58;;;0.50;;
52866;SDS011;38739;53.324;6.862;2022-12-07T04:29:00;12.10;;;1.20;;
52866;SDS011;38739;53.324;6.862;2022-12-07T04:31:26;7.90;;;0.73;;
52866;SDS011;38739;53.324;6.862;2022-12-07T04:33:52;6.30;;;1.05;;
52866;SDS011;38739;53.324;6.862;2022-12-07T04:36:17;11.57;;;1.02;;
52866;SDS011;38739;53.324;6.862;2022-12-07T04:38:45;10.35;;;1.10;;
52866;SDS011;38739;53.324;6.862;2022-12-07T04:41:10;17.58;;;1.75;;
52866;SDS011;38739;53.324;6.862;2022-12-07T04:43:36;7.95;;;1.10;;
52866;SDS011;38739;53.324;6.862;2022-12-07T04:46:02;14.27;;;1.30;;
52866;SDS011;38739;53.324;6.862;2022-12-07T04:48:28;10.70;;;1.00;;
52866;SDS011;38739;53.324;6.862;2022-12-07T04:50:54;8.48;;;1.17;;
52866;SDS011;38739;53.324;6.862;2022-12-07T04:53:19;11.90;;;1.17;;
52866;SDS011;38739;53.324;6.862;2022-12-07T04:55:46;10.15;;;0.98;;
52866;SDS011;38739;53.324;6.862;2022-12-07T04:58:12;9.75;;;0.93;;
52866;SDS011;38739;53.324;6.862;2022-12-07T05:00:38;6.20;;;1.10;;
52866;SDS011;38739;53.324;6.862;2022-12-07T05:03:06;6.97;;;1.10;;
52866;SDS011;38739;53.324;6.862;2022-12-07T05:05:32;9.43;;;1.02;;
52866;SDS011;38739;53.324;6.862;2022-12-07T05:07:57;10.18;;;1.00;;
52866;SDS011;38739;53.324;6.862;2022-12-07T05:10:23;8.27;;;1.08;;
52866;SDS011;38739;53.324;6.862;2022-12-07T05:12:49;11.00;;;0.80;;
52866;SDS011;38739;53.324;6.862;2022-12-07T05:15:15;6.53;;;0.85;;
52866;SDS011;38739;53.324;6.862;2022-12-07T05:17:41;10.15;;;0.95;;
52866;SDS011;38739;53.324;6.862;2022-12-07T05:20:07;9.90;;;0.90;;
52866;SDS011;38739;53.324;6.862;2022-12-07T05:22:33;6.10;;;0.65;;
52866;SDS011;38739;53.324;6.862;2022-12-07T05:24:59;10.70;;;0.95;;
52866;SDS011;38739;53.324;6.862;2022-12-07T05:27:25;8.13;;;0.80;;
52866;SDS011;38739;53.324;6.862;2022-12-07T05:29:50;7.13;;;0.80;;
52866;SDS011;38739;53.324;6.862;2022-12-07T05:32:16;8.55;;;0.80;;
52866;SDS011;38739;53.324;6.862;2022-12-07T05:34:45;9.73;;;1.27;;
52866;SDS011;38739;53.324;6.862;2022-12-07T05:37:11;5.22;;;0.70;;
52866;SDS011;38739;53.324;6.862;2022-12-07T05:39:37;4.75;;;0.80;;
52866;SDS011;38739;53.324;6.862;2022-12-07T05:42:05;8.07;;;1.20;;
52866;SDS011;38739;53.324;6.862;2022-12-07T05:44:38;6.95;;;0.90;;
52866;SDS011;38739;53.324;6.862;2022-12-07T05:47:04;5.95;;;0.95;;
52866;SDS011;38739;53.324;6.862;2022-12-07T05:49:29;9.50;;;0.90;;
52866;SDS011;38739;53.324;6.862;2022-12-07T05:51:55;10.75;;;0.98;;
52866;SDS011;38739;53.324;6.862;2022-12-07T05:54:21;14.25;;;1.33;;
52866;SDS011;38739;53.324;6.862;2022-12-07T05:56:47;7.07;;;1.02;;
52866;SDS011;38739;53.324;6.862;2022-12-07T05:59:12;11.25;;;1.30;;
52866;SDS011;38739;53.324;6.862;2022-12-07T06:01:47;11.00;;;1.55;;
52866;SDS011;38739;53.324;6.862;2022-12-07T06:04:17;17.08;;;1.17;;
52866;SDS011;38739;53.324;6.862;2022-12-07T06:06:44;11.85;;;1.13;;
52866;SDS011;38739;53.324;6.862;2022-12-07T06:09:10;14.13;;;1.38;;
52866;SDS011;38739;53.324;6.862;2022-12-07T06:11:37;11.43;;;1.25;;
52866;SDS011;38739;53.324;6.862;2022-12-07T06:14:22;15.18;;;1.23;;
52866;SDS011;38739;53.324;6.862;2022-12-07T06:16:48;12.75;;;1.60;;
52866;SDS011;38739;53.324;6.862;2022-12-07T06:19:14;13.93;;;1.63;;
52866;SDS011;38739;53.324;6.862;2022-12-07T06:21:39;14.02;;;1.70;;
52866;SDS011;38739;53.324;6.862;2022-12-07T06:24:05;14.27;;;1.63;;
52866;SDS011;38739;53.324;6.862;2022-12-07T06:26:31;15.48;;;1.60;;
52866;SDS011;38739;53.324;6.862;2022-12-07T06:28:57;17.00;;;2.13;;
52866;SDS011;38739;53.324;6.862;2022-12-07T06:31:22;14.05;;;2.17;;
52866;SDS011;38739;53.324;6.862;2022-12-07T06:33:48;16.75;;;1.33;;
52866;SDS011;38739;53.324;6.862;2022-12-07T06:36:14;13.35;;;1.77;;
52866;SDS011;38739;53.324;6.862;2022-12-07T06:38:40;12.07;;;1.55;;
52866;SDS011;38739;53.324;6.862;2022-12-07T06:41:05;15.13;;;1.58;;
52866;SDS011;38739;53.324;6.862;2022-12-07T06:43:31;10.85;;;1.17;;
52866;SDS011;38739;53.324;6.862;2022-12-07T06:45:57;11.50;;;1.60;;
52866;SDS011;38739;53.324;6.862;2022-12-07T06:48:23;13.93;;;1.40;;
52866;SDS011;38739;53.324;6.862;2022-12-07T06:50:49;10.25;;;1.30;;
52866;SDS011;38739;53.324;6.862;2022-12-07T06:53:15;11.52;;;1.65;;
52866;SDS011;38739;53.324;6.862;2022-12-07T06:55:40;15.88;;;1.38;;
52866;SDS011;38739;53.324;6.862;2022-12-07T06:58:07;9.68;;;1.63;;
52866;SDS011;38739;53.324;6.862;2022-12-07T07:00:33;10.10;;;1.30;;
52866;SDS011;38739;53.324;6.862;2022-12-07T07:03:00;14.40;;;1.80;;
52866;SDS011;38739;53.324;6.862;2022-12-07T07:05:26;9.40;;;1.75;;
52866;SDS011;38739;53.324;6.862;2022-12-07T07:07:54;13.85;;;1.73;;
52866;SDS011;38739;53.324;6.862;2022-12-07T07:10:20;8.02;;;1.30;;
52866;SDS011;38739;53.324;6.862;2022-12-07T07:12:46;10.95;;;1.40;;
52866;SDS011;38739;53.324;6.862;2022-12-07T07:15:11;16.13;;;1.70;;
52866;SDS011;38739;53.324;6.862;2022-12-07T07:17:37;14.07;;;1.55;;
52866;SDS011;38739;53.324;6.862;2022-12-07T07:20:03;15.70;;;2.20;;
52866;SDS011;38739;53.324;6.862;2022-12-07T07:22:29;13.93;;;1.95;;
52866;SDS011;38739;53.324;6.862;2022-12-07T07:24:55;14.45;;;1.75;;
52866;SDS011;38739;53.324;6.862;2022-12-07T07:27:21;15.93;;;1.73;;
52866;SDS011;38739;53.324;6.862;2022-12-07T07:29:46;15.35;;;1.48;;
52866;SDS011;38739;53.324;6.862;2022-12-07T07:32:12;12.38;;;1.60;;
52866;SDS011;38739;53.324;6.862;2022-12-07T07:34:38;15.52;;;1.77;;
52866;SDS011;38739;53.324;6.862;2022-12-07T07:37:05;11.68;;;2.20;;
52866;SDS011;38739;53.324;6.862;2022-12-07T07:39:30;18.20;;;2.25;;
52866;SDS011;38739;53.324;6.862;2022-12-07T07:41:56;16.08;;;2.05;;
52866;SDS011;38739;53.324;6.862;2022-12-07T07:44:22;16.98;;;1.88;;
52866;SDS011;38739;53.324;6.862;2022-12-07T07:46:47;12.98;;;1.50;;
52866;SDS011;38739;53.324;6.862;2022-12-07T07:49:13;14.23;;;1.58;;
52866;SDS011;38739;53.324;6.862;2022-12-07T07:51:38;21.50;;;2.47;;
52866;SDS011;38739;53.324;6.862;2022-12-07T07:54:04;19.25;;;1.90;;
52866;SDS011;38739;53.324;6.862;2022-12-07T07:56:30;10.18;;;1.35;;
52866;SDS011;38739;53.324;6.862;2022-12-07T07:58:56;11.02;;;1.73;;
52866;SDS011;38739;53.324;6.862;2022-12-07T08:01:21;16.10;;;1.50;;
52866;SDS011;38739;53.324;6.862;2022-12-07T08:03:47;13.15;;;1.70;;
52866;SDS011;38739;53.324;6.862;2022-12-07T08:06:13;17.58;;;1.83;;
52866;SDS011;38739;53.324;6.862;2022-12-07T08:08:38;17.88;;;2.17;;
52866;SDS011;38739;53.324;6.862;2022-12-07T08:11:05;18.13;;;1.95;;
52866;SDS011;38739;53.324;6.862;2022-12-07T08:13:31;14.38;;;1.95;;
52866;SDS011;38739;53.324;6.862;2022-12-07T08:15:57;13.55;;;1.83;;
52866;SDS011;38739;53.324;6.862;2022-12-07T08:18:23;10.18;;;1.80;;
52866;SDS011;38739;53.324;6.862;2022-12-07T08:20:49;17.13;;;2.45;;
52866;SDS011;38739;53.324;6.862;2022-12-07T08:23:14;19.45;;;1.80;;
52866;SDS011;38739;53.324;6.862;2022-12-07T08:25:40;18.95;;;2.50;;
52866;SDS011;38739;53.324;6.862;2022-12-07T08:28:06;11.02;;;1.40;;
52866;SDS011;38739;53.324;6.862;2022-12-07T08:30:32;17.58;;;1.70;;
52866;SDS011;38739;53.324;6.862;2022-12-07T08:32:58;13.05;;;2.20;;
52866;SDS011;38739;53.324;6.862;2022-12-07T08:35:24;11.90;;;1.65;;
52866;SDS011;38739;53.324;6.862;2022-12-07T08:37:50;8.32;;;1.40;;
52866;SDS011;38739;53.324;6.862;2022-12-07T08:40:15;11.15;;;1.63;;
52866;SDS011;38739;53.324;6.862;2022-12-07T08:42:43;13.77;;;1.50;;
52866;SDS011;38739;53.324;6.862;2022-12-07T08:45:14;7.97;;;1.20;;
52866;SDS011;38739;53.324;6.862;2022-12-07T08:47:40;9.82;;;1.25;;
52866;SDS011;38739;53.324;6.862;2022-12-07T08:50:10;6.38;;;0.90;;
52866;SDS011;38739;53.324;6.862;2022-12-07T08:52:37;4.05;;;0.77;;
52866;SDS011;38739;53.324;6.862;2022-12-07T08:55:03;2.60;;;0.60;;
52866;SDS011;38739;53.324;6.862;2022-12-07T08:57:31;4.85;;;1.23;;
52866;SDS011;38739;53.324;6.862;2022-12-07T08:59:59;5.40;;;0.80;;
52866;SDS011;38739;53.324;6.862;2022-12-07T09:02:25;4.45;;;0.80;;
52866;SDS011;38739;53.324;6.862;2022-12-07T09:04:50;14.65;;;1.00;;
52866;SDS011;38739;53.324;6.862;2022-12-07T09:07:16;11.25;;;0.80;;
52866;SDS011;38739;53.324;6.862;2022-12-07T09:09:42;4.40;;;0.70;;
52866;SDS011;38739;53.324;6.862;2022-12-07T09:12:08;5.88;;;0.80;;
52866;SDS011;38739;53.324;6.862;2022-12-07T09:14:34;5.85;;;0.98;;
52866;SDS011;38739;53.324;6.862;2022-12-07T09:17:06;6.75;;;1.00;;
52866;SDS011;38739;53.324;6.862;2022-12-07T09:19:36;6.03;;;1.00;;
52866;SDS011;38739;53.324;6.862;2022-12-07T09:22:03;4.82;;;1.08;;
52866;SDS011;38739;53.324;6.862;2022-12-07T09:24:30;9.35;;;0.98;;
52866;SDS011;38739;53.324;6.862;2022-12-07T09:26:56;9.38;;;1.10;;
52866;SDS011;38739;53.324;6.862;2022-12-07T09:29:22;11.13;;;2.22;;
52866;SDS011;38739;53.324;6.862;2022-12-07T09:31:48;8.43;;;1.35;;
52866;SDS011;38739;53.324;6.862;2022-12-07T09:34:14;10.02;;;1.20;;
52866;SDS011;38739;53.324;6.862;2022-12-07T09:36:39;13.00;;;1.48;;
52866;SDS011;38739;53.324;6.862;2022-12-07T09:39:05;6.32;;;1.27;;
52866;SDS011;38739;53.324;6.862;2022-12-07T09:41:31;6.60;;;0.98;;
52866;SDS011;38739;53.324;6.862;2022-12-07T09:44:05;8.65;;;1.20;;
52866;SDS011;38739;53.324;6.862;2022-12-07T09:46:40;8.18;;;1.10;;
52866;SDS011;38739;53.324;6.862;2022-12-07T09:49:18;11.07;;;1.45;;
52866;SDS011;38739;53.324;6.862;2022-12-07T09:51:46;8.20;;;1.10;;
52866;SDS011;38739;53.324;6.862;2022-12-07T09:54:13;6.85;;;1.10;;
52866;SDS011;38739;53.324;6.862;2022-12-07T09:56:41;9.80;;;1.48;;
52866;SDS011;38739;53.324;6.862;2022-12-07T09:59:17;11.73;;;1.30;;
52866;SDS011;38739;53.324;6.862;2022-12-07T10:01:44;7.35;;;1.02;;
52866;SDS011;38739;53.324;6.862;2022-12-07T10:04:22;13.13;;;1.50;;
52866;SDS011;38739;53.324;6.862;2022-12-07T10:06:50;11.50;;;1.45;;
52866;SDS011;38739;53.324;6.862;2022-12-07T10:09:17;14.52;;;1.13;;
52866;SDS011;38739;53.324;6.862;2022-12-07T10:14:33;8.80;;;0.77;;
52866;SDS011;38739;53.324;6.862;2022-12-07T10:17:00;9.25;;;0.88;;
52866;SDS011;38739;53.324;6.862;2022-12-07T10:19:30;5.00;;;0.80;;
52866;SDS011;38739;53.324;6.862;2022-12-07T10:21:59;7.68;;;1.42;;
52866;SDS011;38739;53.324;6.862;2022-12-07T10:24:24;9.27;;;1.20;;
52866;SDS011;38739;53.324;6.862;2022-12-07T10:26:51;10.93;;;1.00;;
52866;SDS011;38739;53.324;6.862;2022-12-07T10:29:19;6.80;;;1.00;;
52866;SDS011;38739;53.324;6.862;2022-12-07T10:31:54;7.50;;;1.25;;
52866;SDS011;38739;53.324;6.862;2022-12-07T10:34:26;9.88;;;1.08;;
52866;SDS011;38739;53.324;6.862;2022-12-07T10:39:55;6.75;;;1.05;;
52866;SDS011;38739;53.324;6.862;2022-12-07T10:42:23;9.35;;;1.10;;
52866;SDS011;38739;53.324;6.862;2022-12-07T10:45:07;7.60;;;1.20;;
52866;SDS011;38739;53.324;6.862;2022-12-07T10:56:07;6.95;;;0.95;;
52866;SDS011;38739;53.324;6.862;2022-12-07T10:58:43;7.80;;;1.02;;
52866;SDS011;38739;53.324;6.862;2022-12-07T11:01:33;6.97;;;1.10;;
52866;SDS011;38739;53.324;6.862;2022-12-07T11:11:51;5.63;;;0.82;;
52866;SDS011;38739;53.324;6.862;2022-12-07T11:17:01;6.40;;;0.93;;
52866;SDS011;38739;53.324;6.862;2022-12-07T11:24:57;7.65;;;0.90;;
52866;SDS011;38739;53.324;6.862;2022-12-07T11:30:57;5.60;;;0.60;;
52866;SDS011;38739;53.324;6.862;2022-12-07T11:38:57;6.05;;;0.68;;
52866;SDS011;38739;53.324;6.862;2022-12-07T11:41:31;6.38;;;0.75;;
52866;SDS011;38739;53.324;6.862;2022-12-07T11:52:17;8.98;;;1.08;;
52866;SDS011;38739;53.324;6.862;2022-12-07T11:54:44;3.70;;;0.77;;
52866;SDS011;38739;53.324;6.862;2022-12-07T11:57:25;7.13;;;1.13;;
52866;SDS011;38739;53.324;6.862;2022-12-07T12:00:12;7.22;;;1.10;;
52866;SDS011;38739;53.324;6.862;2022-12-07T12:03:00;7.13;;;0.82;;
52866;SDS011;38739;53.324;6.862;2022-12-07T12:05:31;10.38;;;1.30;;
52866;SDS011;38739;53.324;6.862;2022-12-07T12:19:11;5.85;;;1.02;;
52866;SDS011;38739;53.324;6.862;2022-12-07T12:21:44;7.18;;;1.20;;
52866;SDS011;38739;53.324;6.862;2022-12-07T12:24:14;6.90;;;1.00;;
52866;SDS011;38739;53.324;6.862;2022-12-07T12:26:48;9.05;;;1.20;;
52866;SDS011;38739;53.324;6.862;2022-12-07T12:29:27;13.20;;;1.50;;
52866;SDS011;38739;53.324;6.862;2022-12-07T12:32:12;7.40;;;1.42;;
52866;SDS011;38739;53.324;6.862;2022-12-07T12:34:57;12.55;;;1.92;;
52866;SDS011;38739;53.324;6.862;2022-12-07T12:42:46;8.05;;;0.98;;
52866;SDS011;38739;53.324;6.862;2022-12-07T12:45:25;6.20;;;0.77;;
52866;SDS011;38739;53.324;6.862;2022-12-07T12:53:31;5.93;;;0.90;;
52866;SDS011;38739;53.324;6.862;2022-12-07T13:00:49;6.60;;;0.75;;
52866;SDS011;38739;53.324;6.862;2022-12-07T13:03:52;5.70;;;0.82;;
52866;SDS011;38739;53.324;6.862;2022-12-07T13:08:52;6.18;;;1.85;;
52866;SDS011;38739;53.324;6.862;2022-12-07T13:17:07;11.25;;;1.13;;
52866;SDS011;38739;53.324;6.862;2022-12-07T13:24:57;12.23;;;1.00;;
52866;SDS011;38739;53.324;6.862;2022-12-07T13:27:25;5.03;;;1.05;;
52866;SDS011;38739;53.324;6.862;2022-12-07T13:29:52;3.78;;;0.60;;
52866;SDS011;38739;53.324;6.862;2022-12-07T13:32:32;5.25;;;0.70;;
52866;SDS011;38739;53.324;6.862;2022-12-07T13:34:57;5.20;;;0.60;;
52866;SDS011;38739;53.324;6.862;2022-12-07T13:37:27;5.95;;;0.68;;
52866;SDS011;38739;53.324;6.862;2022-12-07T13:39:59;3.88;;;0.70;;
52866;SDS011;38739;53.324;6.862;2022-12-07T13:42:30;5.55;;;0.85;;
52866;SDS011;38739;53.324;6.862;2022-12-07T13:44:59;7.30;;;1.05;;
52866;SDS011;38739;53.324;6.862;2022-12-07T13:47:43;6.97;;;0.52;;
52866;SDS011;38739;53.324;6.862;2022-12-07T13:50:24;5.10;;;0.88;;
52866;SDS011;38739;53.324;6.862;2022-12-07T13:52:50;3.88;;;0.75;;
52866;SDS011;38739;53.324;6.862;2022-12-07T13:55:21;5.90;;;0.90;;
52866;SDS011;38739;53.324;6.862;2022-12-07T13:57:49;1.63;;;0.50;;
52866;SDS011;38739;53.324;6.862;2022-12-07T14:00:18;3.67;;;0.80;;
52866;SDS011;38739;53.324;6.862;2022-12-07T14:05:24;76.15;;;3.45;;
52866;SDS011;38739;53.324;6.862;2022-12-07T14:07:59;6.18;;;0.80;;
52866;SDS011;38739;53.324;6.862;2022-12-07T14:10:34;6.13;;;0.88;;
52866;SDS011;38739;53.324;6.862;2022-12-07T14:13:02;9.95;;;1.17;;
52866;SDS011;38739;53.324;6.862;2022-12-07T14:15:49;7.57;;;1.75;;
52866;SDS011;38739;53.324;6.862;2022-12-07T14:18:29;6.05;;;1.15;;
52866;SDS011;38739;53.324;6.862;2022-12-07T14:23:31;4.60;;;1.13;;
52866;SDS011;38739;53.324;6.862;2022-12-07T14:28:38;4.38;;;1.60;;
52866;SDS011;38739;53.324;6.862;2022-12-07T14:31:10;5.15;;;1.60;;
52866;SDS011;38739;53.324;6.862;2022-12-07T14:33:39;8.43;;;3.10;;
52866;SDS011;38739;53.324;6.862;2022-12-07T14:36:05;8.95;;;2.20;;
52866;SDS011;38739;53.324;6.862;2022-12-07T14:38:35;9.75;;;1.40;;
52866;SDS011;38739;53.324;6.862;2022-12-07T14:41:01;7.05;;;1.30;;
52866;SDS011;38739;53.324;6.862;2022-12-07T14:43:47;9.70;;;1.60;;
52866;SDS011;38739;53.324;6.862;2022-12-07T14:46:13;7.38;;;1.73;;
52866;SDS011;38739;53.324;6.862;2022-12-07T14:48:39;6.43;;;1.50;;
52866;SDS011;38739;53.324;6.862;2022-12-07T14:51:04;6.38;;;1.20;;
52866;SDS011;38739;53.324;6.862;2022-12-07T14:53:33;7.30;;;1.13;;
52866;SDS011;38739;53.324;6.862;2022-12-07T14:56:02;6.60;;;1.25;;
52866;SDS011;38739;53.324;6.862;2022-12-07T14:58:30;3.97;;;1.50;;
52866;SDS011;38739;53.324;6.862;2022-12-07T15:00:57;5.07;;;1.48;;
52866;SDS011;38739;53.324;6.862;2022-12-07T15:03:23;5.43;;;1.60;;
52866;SDS011;38739;53.324;6.862;2022-12-07T15:05:49;4.15;;;1.45;;
52866;SDS011;38739;53.324;6.862;2022-12-07T15:08:14;3.80;;;1.30;;
52866;SDS011;38739;53.324;6.862;2022-12-07T15:10:40;3.97;;;0.80;;
52866;SDS011;38739;53.324;6.862;2022-12-07T15:13:06;7.95;;;1.23;;
52866;SDS011;38739;53.324;6.862;2022-12-07T15:15:52;5.60;;;0.88;;
52866;SDS011;38739;53.324;6.862;2022-12-07T15:18:19;4.97;;;0.65;;
52866;SDS011;38739;53.324;6.862;2022-12-07T15:20:46;3.85;;;0.40;;
52866;SDS011;38739;53.324;6.862;2022-12-07T15:23:12;3.22;;;0.50;;
52866;SDS011;38739;53.324;6.862;2022-12-07T15:25:42;4.10;;;0.50;;
52866;SDS011;38739;53.324;6.862;2022-12-07T15:28:08;3.25;;;0.45;;
52866;SDS011;38739;53.324;6.862;2022-12-07T15:30:36;3.38;;;0.40;;
52866;SDS011;38739;53.324;6.862;2022-12-07T15:33:02;7.25;;;0.70;;
52866;SDS011;38739;53.324;6.862;2022-12-07T15:35:28;4.72;;;0.63;;
52866;SDS011;38739;53.324;6.862;2022-12-07T15:37:54;7.40;;;0.77;;
52866;SDS011;38739;53.324;6.862;2022-12-07T15:40:19;6.00;;;0.75;;
52866;SDS011;38739;53.324;6.862;2022-12-07T15:42:45;4.88;;;0.70;;
52866;SDS011;38739;53.324;6.862;2022-12-07T15:45:11;8.10;;;0.60;;
52866;SDS011;38739;53.324;6.862;2022-12-07T15:47:42;5.85;;;0.98;;
52866;SDS011;38739;53.324;6.862;2022-12-07T15:50:11;3.63;;;1.20;;
52866;SDS011;38739;53.324;6.862;2022-12-07T15:52:39;4.35;;;1.00;;
52866;SDS011;38739;53.324;6.862;2022-12-07T15:55:05;6.45;;;1.10;;
52866;SDS011;38739;53.324;6.862;2022-12-07T15:57:32;6.55;;;1.30;;
52866;SDS011;38739;53.324;6.862;2022-12-07T16:00:00;4.88;;;1.40;;
52866;SDS011;38739;53.324;6.862;2022-12-07T16:02:25;2.45;;;0.38;;
52866;SDS011;38739;53.324;6.862;2022-12-07T16:04:51;3.53;;;0.43;;
52866;SDS011;38739;53.324;6.862;2022-12-07T16:07:18;1.88;;;0.50;;
52866;SDS011;38739;53.324;6.862;2022-12-07T16:09:44;3.05;;;0.40;;
52866;SDS011;38739;53.324;6.862;2022-12-07T16:12:11;2.30;;;0.47;;
52866;SDS011;38739;53.324;6.862;2022-12-07T16:14:39;2.38;;;0.43;;
52866;SDS011;38739;53.324;6.862;2022-12-07T16:17:05;2.60;;;0.50;;
52866;SDS011;38739;53.324;6.862;2022-12-07T16:19:32;4.35;;;0.70;;
52866;SDS011;38739;53.324;6.862;2022-12-07T16:24:32;13.95;;;9.43;;
52866;SDS011;38739;53.324;6.862;2022-12-07T16:27:08;8.25;;;4.60;;
52866;SDS011;38739;53.324;6.862;2022-12-07T16:29:52;6.55;;;2.90;;
52866;SDS011;38739;53.324;6.862;2022-12-07T16:32:17;4.88;;;2.83;;
52866;SDS011;38739;53.324;6.862;2022-12-07T16:34:43;6.50;;;2.42;;
52866;SDS011;38739;53.324;6.862;2022-12-07T16:37:09;6.07;;;2.75;;
52866;SDS011;38739;53.324;6.862;2022-12-07T16:39:35;6.10;;;3.33;;
52866;SDS011;38739;53.324;6.862;2022-12-07T16:42:00;7.95;;;4.28;;
52866;SDS011;38739;53.324;6.862;2022-12-07T16:44:26;8.05;;;4.30;;
52866;SDS011;38739;53.324;6.862;2022-12-07T16:46:53;8.23;;;3.90;;
52866;SDS011;38739;53.324;6.862;2022-12-07T16:49:18;7.18;;;3.80;;
52866;SDS011;38739;53.324;6.862;2022-12-07T16:51:50;7.50;;;3.03;;
52866;SDS011;38739;53.324;6.862;2022-12-07T16:54:16;8.75;;;3.00;;
52866;SDS011;38739;53.324;6.862;2022-12-07T16:56:45;8.60;;;3.60;;
52866;SDS011;38739;53.324;6.862;2022-12-07T16:59:11;9.27;;;3.35;;
52866;SDS011;38739;53.324;6.862;2022-12-07T17:01:37;9.60;;;3.40;;
52866;SDS011;38739;53.324;6.862;2022-12-07T17:04:03;8.15;;;2.65;;
52866;SDS011;38739;53.324;6.862;2022-12-07T17:06:29;6.82;;;2.00;;
52866;SDS011;38739;53.324;6.862;2022-12-07T17:08:56;9.65;;;2.50;;
52866;SDS011;38739;53.324;6.862;2022-12-07T17:11:26;8.90;;;2.80;;
52866;SDS011;38739;53.324;6.862;2022-12-07T17:13:53;14.57;;;6.07;;
52866;SDS011;38739;53.324;6.862;2022-12-07T17:16:38;27.58;;;11.90;;